Airfield :
LOGIN :

Register | Disclaimer

   EN    FR    IT 

 










Legend :    VFR   Marginal VFR   IFR   Intensive IFR   Very Intensive IFR
Visi :
Ceiling :
>= 8 km
>= 3000ft
5 to 8 km
1000 to 3000 ft
1500m to 5 km
500 to 1000 ft
800 to 1500m
200 to 500 ft
< 800m
< 200 ft
Symbols :   Thunderstorms  Fog  Heavy snow  Heavy precipitations  Wind > 20 kt
SIGMETs :     Misc.  Thunderstorms  Icing  Turbulence  Mountain Waves  Volcanic Ashes







- Airport Elevation : 220 ft
- IATA code : CWL
- Download approach charts


EGFF - Cardiff Rhoose

CURRENT METAR :
  • 262120Z AUTO 13004KT 4200 HZ BKN021 OVC028 14/14 Q1021

EXPIRED METARs :
  • 262050Z AUTO 10003KT 6000 SCT024 BKN029 14/13 Q1021
  • 262020Z AUTO 12005KT 9000 SCT030 15/12 Q1021
  • 261950Z AUTO 09005KT 9999 BKN033 15/13 Q1021
  • 261920Z AUTO 08004KT 9999 OVC032 16/13 Q1021
  • 261850Z AUTO 08005KT 9999 BKN029 15/13 Q1021

TAF TAF EGFF
Valid from the 26 at 18:00 until the 27 at 18:00 UTC


261658Z 2618/2718 10007KT 9999 FEW035
BECMG 2618/2621 7000
TEMPO 2618/2709 4000 BR
PROB30
TEMPO 2618/2706 BKN005
BECMG 2709/2712 9999
BECMG 2711/2714 16012KT 8000 -RA
TEMPO 2714/2718 BKN010
PROB30
TEMPO 2716/2718 17015G25KT 3000 +RA BKN005
ATIS : +44 1446 729 319
No reported NOTAMs for that airfield.



MET'MAP, your aeronautical weather chart ! - Copyright ORBIFLY December 2007 - Disclaimer

ORBIFLY MET'MAP TEAM :

Programming & Development : Alexandra Zaïnal
Concept & Development : Baudouin d'Aumeries
Co-Development & Prog : Marc-Olivier Méhu
Technical & hardware support : Manuel Goepfert

Contact : metmap@orbifly.com




SOURCES & CREDITS :

   NOAA